createdAt,value
2019-04-19T00:01:34.287Z,62.65
2019-04-19T00:04:12.187Z,63.91
2019-04-19T00:06:43.379Z,65.12
2019-04-19T00:09:28.526Z,65.21
2019-04-19T00:11:59.121Z,65.46
2019-04-19T00:14:19.418Z,65.60
2019-04-19T00:16:51.088Z,65.32
2019-04-19T00:19:39.945Z,64.53
2019-04-19T00:22:14.262Z,64.04
2019-04-19T00:24:26.937Z,64.47
2019-04-19T00:26:57.529Z,64.94
2019-04-19T00:29:39.611Z,65.31
2019-04-19T00:32:16.960Z,66.53
2019-04-19T00:34:33.681Z,67.27
2019-04-19T00:37:05.738Z,68.33
2019-04-19T00:40:05.001Z,68.46
2019-04-19T00:43:01.720Z,68.62
2019-04-19T00:46:00.870Z,68.57
2019-04-19T00:48:31.791Z,68.71
2019-04-19T00:51:02.310Z,69.49
2019-04-19T00:53:28.317Z,69.99
2019-04-19T00:56:00.815Z,70.46
2019-04-19T00:58:29.782Z,71.11
2019-04-19T01:01:05.977Z,71.41
2019-04-19T01:03:38.560Z,71.48
2019-04-19T01:06:08.393Z,71.89
2019-04-19T01:08:42.028Z,72.54
2019-04-19T01:11:21.177Z,72.29
2019-04-19T01:14:13.845Z,72.34
2019-04-19T01:16:51.683Z,72.48
2019-04-19T01:19:09.300Z,72.81
2019-04-19T01:21:37.051Z,72.58
2019-04-19T01:24:08.433Z,72.64
2019-04-19T01:26:45.942Z,72.50
2019-04-19T01:29:16.813Z,72.59
2019-04-19T01:31:49.488Z,72.44
2019-04-19T01:34:23.995Z,72.55
2019-04-19T01:36:52.704Z,72.63
2019-04-19T01:39:36.317Z,72.74
2019-04-19T01:42:09.720Z,73.29
2019-04-19T01:44:54.494Z,73.28
2019-04-19T01:48:01.947Z,73.44
2019-04-19T01:50:52.840Z,73.19
2019-04-19T01:53:25.361Z,73.43
2019-04-19T01:55:41.528Z,73.56
2019-04-19T01:58:16.181Z,73.29
2019-04-19T02:00:48.979Z,73.36
2019-04-19T02:03:16.671Z,73.90
2019-04-19T02:05:53.271Z,74.25
2019-04-19T02:08:21.071Z,74.42
2019-04-19T02:11:39.710Z,74.40
2019-04-19T02:14:08.678Z,74.41
2019-04-19T02:16:33.321Z,74.40
2019-04-19T02:19:09.746Z,74.22
2019-04-19T02:21:42.324Z,74.52
2019-04-19T02:24:10.629Z,74.49
2019-04-19T02:26:49.993Z,74.75
2019-04-19T02:29:20.238Z,74.61
2019-04-19T02:32:15.445Z,74.77
2019-04-19T02:34:47.228Z,74.53
2019-04-19T02:39:56.198Z,74.18
2019-04-19T02:42:32.469Z,74.60
2019-04-19T02:45:03.753Z,74.44
2019-04-19T02:52:52.446Z,73.24
2019-04-19T02:58:04.231Z,72.20
2019-04-19T03:03:24.742Z,73.78
2019-04-19T03:05:47.494Z,75.01
2019-04-19T03:08:04.279Z,76.13
2019-04-19T03:10:49.949Z,76.51
2019-04-19T03:13:21.643Z,76.81
2019-04-19T03:15:54.326Z,77.45
2019-04-19T03:18:42.646Z,78.00
2019-04-19T03:21:00.524Z,78.65
2019-04-19T03:23:30.685Z,78.60
2019-04-19T03:26:04.607Z,78.45
2019-04-19T03:28:34.109Z,78.41
2019-04-19T03:33:59.552Z,78.14
2019-04-19T03:36:20.141Z,78.84
2019-04-19T03:38:48.766Z,79.90
2019-04-19T03:41:40.635Z,80.25
2019-04-19T03:44:15.955Z,80.40
2019-04-19T03:46:58.098Z,80.26
2019-04-19T03:49:30.835Z,79.68
2019-04-19T03:52:04.351Z,79.16
2019-04-19T03:54:28.537Z,78.71
2019-04-19T03:57:03.115Z,78.57
2019-04-19T03:59:18.554Z,77.32
2019-04-19T04:01:53.323Z,73.10
2019-04-19T04:04:26.543Z,73.10
2019-04-19T04:06:54.897Z,70.93
2019-04-19T04:09:43.440Z,69.42
2019-04-19T04:12:34.651Z,68.17
2019-04-19T04:15:14.568Z,66.94
2019-04-19T04:17:35.701Z,65.52
2019-04-19T04:20:07.425Z,63.91
2019-04-19T04:22:42.181Z,62.61
2019-04-19T04:25:19.784Z,61.91
2019-04-19T04:27:53.120Z,60.70
2019-04-19T04:30:26.253Z,59.15
2019-04-19T04:33:01.351Z,58.57
2019-04-19T04:35:36.249Z,57.77
2019-04-19T04:38:04.963Z,57.24
2019-04-19T04:40:27.658Z,56.52
2019-04-19T04:43:08.695Z,56.17
2019-04-19T04:46:01.874Z,55.32
2019-04-19T04:48:38.573Z,54.85
2019-04-19T04:51:18.407Z,54.25
2019-04-19T04:53:36.324Z,54.12
2019-04-19T04:56:12.545Z,53.27
2019-04-19T04:58:46.973Z,53.06
2019-04-19T05:01:32.616Z,52.04
2019-04-19T05:04:07.385Z,52.36
2019-04-19T05:06:35.338Z,51.24
2019-04-19T05:09:19.804Z,50.30
2019-04-19T05:11:51.125Z,53.73
2019-04-19T05:14:28.709Z,54.19
2019-04-19T05:17:12.354Z,55.63
2019-04-19T05:19:41.636Z,57.37
2019-04-19T05:22:08.572Z,59.19
2019-04-19T05:24:45.188Z,59.93
2019-04-19T05:27:14.796Z,60.86
2019-04-19T05:29:34.440Z,61.94
2019-04-19T05:32:11.658Z,62.00
2019-04-19T05:34:52.463Z,62.06
2019-04-19T05:37:17.547Z,60.40
2019-04-19T05:40:04.765Z,57.57
2019-04-19T05:42:49.522Z,54.24
2019-04-19T05:45:35.403Z,49.16
2019-04-19T05:47:49.372Z,46.78
2019-04-19T05:50:33.216Z,45.16
2019-04-19T05:53:00.185Z,42.52
2019-04-19T05:55:18.922Z,41.10
2019-04-19T05:58:03.335Z,40.45
2019-04-19T06:00:40.930Z,40.00
2019-04-19T06:03:13.467Z,39.00
2019-04-19T06:06:02.596Z,38.23
2019-04-19T06:08:15.331Z,39.24
2019-04-19T06:10:46.487Z,38.34
2019-04-19T06:13:15.136Z,37.20
2019-04-19T06:16:07.606Z,35.90
2019-04-19T06:18:44.068Z,36.82
2019-04-19T06:21:23.422Z,35.06
2019-04-19T06:23:58.084Z,33.73
2019-04-19T06:31:37.069Z,33.74
2019-04-19T06:34:03.666Z,32.77
2019-04-19T06:36:19.261Z,32.88
2019-04-19T06:38:50.704Z,33.53
2019-04-19T06:41:25.003Z,31.77
2019-04-19T06:44:05.121Z,33.25
2019-04-19T06:46:40.943Z,32.18
2019-04-19T06:49:05.089Z,33.00
2019-04-19T06:51:41.918Z,31.61
2019-04-19T06:54:09.113Z,31.34
2019-04-19T06:56:41.330Z,32.26
2019-04-19T06:59:20.097Z,30.87
2019-04-19T07:01:49.750Z,30.64
2019-04-19T07:04:17.023Z,29.84
2019-04-19T07:07:09.460Z,29.86
2019-04-19T07:09:45.121Z,30.50
2019-04-19T07:12:13.254Z,29.16
2019-04-19T07:14:29.482Z,30.39
2019-04-19T07:17:15.452Z,29.40
2019-04-19T07:19:52.927Z,28.64
2019-04-19T07:22:14.440Z,27.95
2019-04-19T07:25:01.438Z,29.36
2019-04-19T07:27:22.415Z,31.29
2019-04-19T07:29:40.602Z,31.88
2019-04-19T07:32:12.567Z,33.94
2019-04-19T07:34:57.054Z,34.10
2019-04-19T07:37:30.338Z,32.61
2019-04-19T07:40:16.323Z,34.70
2019-04-19T07:42:39.824Z,36.08
2019-04-19T07:45:04.924Z,35.72
2019-04-19T07:47:48.927Z,36.86
2019-04-19T07:50:19.748Z,34.15
2019-04-19T07:52:52.985Z,33.95
2019-04-19T07:55:17.818Z,34.03
2019-04-19T07:58:24.245Z,35.36
2019-04-19T08:01:12.142Z,37.48
2019-04-19T08:05:54.966Z,35.24
2019-04-19T08:16:04.695Z,35.12
2019-04-19T08:28:37.794Z,35.15
2019-04-19T08:31:02.551Z,35.54
2019-04-19T08:33:32.037Z,35.71
2019-04-19T08:36:07.414Z,36.38
2019-04-19T08:38:35.646Z,37.15
2019-04-19T08:41:57.309Z,35.65
2019-04-19T08:43:57.284Z,34.94
2019-04-19T08:46:32.539Z,34.77
2019-04-19T08:49:28.451Z,35.51
2019-04-19T08:52:08.403Z,36.23
2019-04-19T08:54:59.279Z,34.53
2019-04-19T08:57:14.779Z,43.65
2019-04-19T09:00:08.154Z,48.31
2019-04-19T09:02:34.536Z,50.33
2019-04-19T09:05:04.283Z,50.94
2019-04-19T09:07:46.905Z,50.13
2019-04-19T09:12:48.261Z,53.27
2019-04-19T09:15:18.127Z,54.09
2019-04-19T09:20:28.041Z,52.98
2019-04-19T09:23:04.848Z,53.91
2019-04-19T09:25:55.051Z,54.84
2019-04-19T09:31:04.467Z,53.09
2019-04-19T09:33:26.306Z,53.17
2019-04-19T09:36:01.260Z,53.61
2019-04-19T09:38:39.180Z,52.83
2019-04-19T09:41:03.036Z,52.42
2019-04-19T09:43:42.513Z,53.03
2019-04-19T09:46:02.029Z,54.83
2019-04-19T09:48:51.758Z,54.11
2019-04-19T09:51:25.541Z,54.14
2019-04-19T09:54:15.736Z,54.82
2019-04-19T09:56:27.108Z,55.20
2019-04-19T09:58:53.981Z,54.73
2019-04-19T10:01:23.198Z,55.43
2019-04-19T10:03:56.673Z,56.17
2019-04-19T10:06:24.655Z,56.53
2019-04-19T10:08:56.100Z,56.02
2019-04-19T10:11:27.353Z,56.36
2019-04-19T10:13:58.377Z,56.96
2019-04-19T10:16:42.686Z,58.49
2019-04-19T10:19:14.609Z,60.14
2019-04-19T10:21:52.161Z,61.37
2019-04-19T10:24:24.252Z,62.63
2019-04-19T10:27:33.237Z,61.66
2019-04-19T10:30:06.129Z,61.26
2019-04-19T10:32:38.503Z,62.18
2019-04-19T10:35:09.499Z,63.24
2019-04-19T10:37:40.187Z,65.48
2019-04-19T10:40:13.538Z,65.99
2019-04-19T10:42:45.181Z,66.15
2019-04-19T10:45:16.357Z,66.67
2019-04-19T10:47:49.371Z,67.69
2019-04-19T10:50:32.678Z,66.46
2019-04-19T10:52:54.423Z,64.74
2019-04-19T10:55:29.915Z,65.50
2019-04-19T10:58:01.125Z,65.90
2019-04-19T11:00:33.371Z,65.14
2019-04-19T11:03:05.224Z,66.03
2019-04-19T11:05:39.032Z,66.59
2019-04-19T11:08:09.908Z,66.49
2019-04-19T11:10:41.006Z,65.84
2019-04-19T11:13:12.823Z,66.96
2019-04-19T11:15:44.553Z,67.68
2019-04-19T11:18:15.681Z,67.94
2019-04-19T11:20:49.598Z,67.96
2019-04-19T11:23:19.784Z,68.39
2019-04-19T11:25:52.128Z,68.18
2019-04-19T11:28:22.908Z,68.25
2019-04-19T11:31:02.916Z,67.82
2019-04-19T11:33:34.954Z,69.07
2019-04-19T11:36:05.992Z,68.89
2019-04-19T11:38:36.930Z,69.58
2019-04-19T11:41:11.211Z,72.39
2019-04-19T11:43:43.255Z,74.55
2019-04-19T11:46:16.068Z,74.77
2019-04-19T11:48:49.890Z,75.72
2019-04-19T11:51:21.591Z,75.75
2019-04-19T11:53:52.490Z,76.70
2019-04-19T11:56:46.006Z,77.05
2019-04-19T11:59:36.995Z,77.48
2019-04-19T12:02:10.235Z,78.87
2019-04-19T12:04:42.009Z,79.83
2019-04-19T12:07:12.963Z,80.00
2019-04-19T12:09:44.787Z,80.35
2019-04-19T12:12:16.989Z,80.70
2019-04-19T12:14:48.559Z,81.45
2019-04-19T12:17:19.490Z,80.74
2019-04-19T12:19:56.070Z,80.58
2019-04-19T12:22:27.516Z,80.16
2019-04-19T12:24:59.457Z,79.64
2019-04-19T12:27:31.741Z,78.93
2019-04-19T12:30:05.440Z,78.68
2019-04-19T12:32:43.588Z,78.79
2019-04-19T12:35:14.443Z,78.51
2019-04-19T12:37:45.047Z,76.92
2019-04-19T12:40:17.059Z,76.93
2019-04-19T12:42:48.256Z,75.86
2019-04-19T12:45:19.877Z,75.70
2019-04-19T12:47:51.158Z,73.75
2019-04-19T12:50:23.852Z,72.34
2019-04-19T12:52:55.841Z,72.34
2019-04-19T12:55:30.204Z,72.41
2019-04-19T12:58:04.048Z,71.51
2019-04-19T13:01:03.826Z,73.17
2019-04-19T13:03:52.567Z,73.15
2019-04-19T13:06:27.424Z,74.27
2019-04-19T13:08:59.239Z,74.30
2019-04-19T13:11:29.749Z,73.87
2019-04-19T13:14:01.708Z,73.13
2019-04-19T13:16:32.815Z,73.88
2019-04-19T13:19:03.785Z,74.31
2019-04-19T13:21:36.366Z,73.58
2019-04-19T13:24:08.669Z,74.18
2019-04-19T13:26:41.561Z,74.64
2019-04-19T13:29:13.328Z,74.81
2019-04-19T13:31:44.979Z,74.28
2019-04-19T13:34:16.849Z,72.90
2019-04-19T13:37:18.934Z,72.79
2019-04-19T13:40:12.315Z,72.44
2019-04-19T13:42:44.767Z,71.60
2019-04-19T13:45:23.498Z,71.21
2019-04-19T13:47:48.916Z,69.94
2019-04-19T13:50:28.259Z,68.42
2019-04-19T13:52:52.904Z,69.52
2019-04-19T13:55:24.452Z,70.40
2019-04-19T13:57:55.676Z,70.34
2019-04-19T14:00:42.636Z,69.59
2019-04-19T14:03:13.817Z,68.58
2019-04-19T14:05:45.786Z,69.42
2019-04-19T14:08:17.401Z,67.41
2019-04-19T14:10:50.907Z,68.01
2019-04-19T14:13:23.147Z,69.01
2019-04-19T14:15:53.974Z,70.25
2019-04-19T14:18:25.030Z,71.41
2019-04-19T14:20:57.517Z,71.51
2019-04-19T14:23:28.498Z,70.20
2019-04-19T14:25:59.362Z,69.06
2019-04-19T14:28:29.873Z,69.45
2019-04-19T14:31:03.221Z,68.15
2019-04-19T14:33:34.849Z,68.03
2019-04-19T14:36:06.223Z,69.95
2019-04-19T14:38:39.465Z,71.74
2019-04-19T14:41:11.523Z,70.90
2019-04-19T14:43:42.766Z,71.06
2019-04-19T14:46:14.386Z,70.12
2019-04-19T14:48:45.353Z,69.77
2019-04-19T14:51:22.265Z,70.21
2019-04-19T14:53:49.804Z,71.01
2019-04-19T14:56:21.728Z,72.02
2019-04-19T14:58:52.673Z,72.69
2019-04-19T15:01:45.204Z,72.73
2019-04-19T15:04:30.886Z,73.50
2019-04-19T15:07:01.979Z,73.93
2019-04-19T15:09:33.318Z,74.02
2019-04-19T15:12:04.642Z,74.03
2019-04-19T15:14:36.778Z,73.85
2019-04-19T15:17:07.806Z,73.98
2019-04-19T15:19:39.691Z,73.16
2019-04-19T15:22:12.386Z,73.34
2019-04-19T15:24:44.561Z,72.95
2019-04-19T15:27:16.981Z,71.97
2019-04-19T15:29:49.956Z,72.10
2019-04-19T15:32:22.202Z,73.05
2019-04-19T15:34:53.803Z,73.35
2019-04-19T15:37:25.603Z,73.89
2019-04-19T15:39:56.440Z,73.44
2019-04-19T15:42:27.209Z,74.03
2019-04-19T15:44:58.670Z,74.03
2019-04-19T15:47:30.708Z,72.89
2019-04-19T15:50:02.374Z,71.87
2019-04-19T15:52:33.266Z,71.87
2019-04-19T15:55:04.366Z,72.10
2019-04-19T15:57:36.262Z,72.11
2019-04-19T16:00:14.077Z,73.14
2019-04-19T16:03:00.083Z,73.31
2019-04-19T16:05:56.049Z,72.98
2019-04-19T16:08:59.044Z,72.98
2019-04-19T16:11:49.059Z,72.91
2019-04-19T16:14:21.786Z,72.91
2019-04-19T16:16:53.436Z,72.76
2019-04-19T16:19:26.553Z,72.76
2019-04-19T16:22:00.591Z,73.18
2019-04-19T16:24:31.393Z,73.86
2019-04-19T16:27:02.697Z,73.86
2019-04-19T16:29:42.234Z,74.51
2019-04-19T16:32:07.094Z,74.80
2019-04-19T16:34:38.786Z,74.63
2019-04-19T16:37:10.392Z,75.27
2019-04-19T16:39:41.961Z,76.04
2019-04-19T16:42:13.277Z,76.14
2019-04-19T16:44:44.212Z,76.03
2019-04-19T16:47:15.417Z,76.83
2019-04-19T16:49:46.824Z,76.83
2019-04-19T16:52:18.586Z,76.77
2019-04-19T16:54:50.234Z,76.31
2019-04-19T16:57:26.797Z,76.72
2019-04-19T16:59:55.676Z,77.08
2019-04-19T17:02:26.946Z,78.06
2019-04-19T17:04:58.818Z,78.11
2019-04-19T17:07:30.286Z,77.90
2019-04-19T17:10:01.849Z,77.90
2019-04-19T17:12:33.361Z,78.55
2019-04-19T17:15:23.327Z,78.19
2019-04-19T17:18:08.824Z,78.19
2019-04-19T17:20:55.604Z,77.73
2019-04-19T17:23:34.992Z,77.55
2019-04-19T17:26:20.097Z,77.86
2019-04-19T17:28:52.900Z,78.18
2019-04-19T17:31:24.444Z,78.18
2019-04-19T17:33:56.174Z,78.44
2019-04-19T17:36:28.318Z,78.44
2019-04-19T17:39:00.177Z,78.46
2019-04-19T17:41:32.366Z,78.50
2019-04-19T17:44:23.840Z,78.49
2019-04-19T17:46:56.298Z,78.85
2019-04-19T17:49:28.679Z,78.77
2019-04-19T17:52:09.361Z,79.02
2019-04-19T17:54:50.119Z,78.94
2019-04-19T17:57:05.221Z,78.94
2019-04-19T17:59:36.477Z,73.61
2019-04-19T18:02:07.707Z,73.61
2019-04-19T18:04:38.407Z,73.72
2019-04-19T18:07:09.752Z,73.20
2019-04-19T18:09:48.527Z,74.22
2019-04-19T18:12:13.935Z,74.22
2019-04-19T18:14:45.729Z,74.72
2019-04-19T18:17:17.008Z,74.27
2019-04-19T18:19:48.592Z,73.54
2019-04-19T18:22:34.385Z,73.32
2019-04-19T18:24:58.252Z,73.09
2019-04-19T18:27:27.798Z,72.51
2019-04-19T18:30:03.317Z,72.23
2019-04-19T18:32:36.377Z,71.99
2019-04-19T18:35:15.049Z,71.97
2019-04-19T18:37:44.037Z,72.58
2019-04-19T18:40:13.216Z,73.88
2019-04-19T18:42:51.087Z,75.61
2019-04-19T18:45:23.635Z,76.81
2019-04-19T18:47:50.747Z,77.48
2019-04-19T18:50:28.501Z,77.61
2019-04-19T18:53:11.878Z,78.37
2019-04-19T18:55:38.405Z,78.10
2019-04-19T18:58:06.582Z,78.13
2019-04-19T19:00:44.542Z,78.08
2019-04-19T19:03:11.995Z,78.12
2019-04-19T19:05:47.882Z,77.55
2019-04-19T19:08:24.135Z,77.21
2019-04-19T19:10:52.336Z,76.54
2019-04-19T19:13:25.681Z,76.11
2019-04-19T19:15:57.700Z,75.98
2019-04-19T19:18:35.023Z,76.10
2019-04-19T19:21:04.563Z,76.01
2019-04-19T19:23:49.664Z,75.95
2019-04-19T19:26:19.385Z,76.14
2019-04-19T19:28:40.627Z,76.37
2019-04-19T19:31:11.938Z,76.26
2019-04-19T19:33:45.064Z,76.36
2019-04-19T19:36:21.493Z,76.26
2019-04-19T19:38:57.966Z,75.70
2019-04-19T19:42:14.272Z,75.34
2019-04-19T19:44:06.505Z,75.25
2019-04-19T19:47:07.201Z,74.61
2019-04-19T19:49:38.502Z,73.92
2019-04-19T19:51:47.795Z,73.90
2019-04-19T19:54:43.356Z,73.84
2019-04-19T19:57:02.951Z,73.86
2019-04-19T19:59:24.996Z,73.20
2019-04-19T20:01:58.642Z,73.10
2019-04-19T20:04:21.509Z,73.00
2019-04-19T20:07:00.159Z,72.40
2019-04-19T20:09:29.059Z,72.25
2019-04-19T20:12:03.981Z,71.89
2019-04-19T20:14:33.654Z,71.55
2019-04-19T20:17:07.945Z,71.25
2019-04-19T20:19:37.429Z,71.22
2019-04-19T20:22:09.263Z,71.25
2019-04-19T20:24:52.666Z,71.05
2019-04-19T20:27:19.080Z,70.81
2019-04-19T20:29:51.988Z,70.17
2019-04-19T20:32:22.168Z,70.51
2019-04-19T20:34:51.923Z,70.87
2019-04-19T20:37:25.101Z,70.88
2019-04-19T20:40:01.485Z,70.89
2019-04-19T20:42:45.880Z,71.36
2019-04-19T20:45:07.087Z,71.41
2019-04-19T20:47:33.559Z,72.02
2019-04-19T20:50:18.817Z,71.92
2019-04-19T20:52:52.783Z,72.11
2019-04-19T20:55:32.631Z,72.07
2019-04-19T20:58:24.274Z,72.28
2019-04-19T21:00:48.478Z,72.50
2019-04-19T21:03:30.372Z,72.74
2019-04-19T21:05:58.083Z,73.06
2019-04-19T21:08:30.276Z,72.57
2019-04-19T21:11:04.658Z,72.34
2019-04-19T21:13:38.168Z,72.44
2019-04-19T21:16:06.681Z,72.54
2019-04-19T21:18:39.037Z,72.59
2019-04-19T21:21:15.862Z,72.77
2019-04-19T21:23:52.169Z,73.03
2019-04-19T21:26:25.352Z,72.75
2019-04-19T21:28:52.634Z,72.58
2019-04-19T21:31:23.791Z,72.91
2019-04-19T21:33:59.863Z,72.82
2019-04-19T21:36:36.976Z,72.98
2019-04-19T21:39:09.514Z,73.05
2019-04-19T21:42:00.217Z,72.88
2019-04-19T21:44:30.602Z,72.29
2019-04-19T21:47:04.945Z,72.34
2019-04-19T21:49:34.923Z,72.01
2019-04-19T21:52:14.035Z,72.37
2019-04-19T21:54:38.849Z,72.25
2019-04-19T21:57:10.824Z,72.23
2019-04-19T21:59:42.579Z,72.24
2019-04-19T22:02:25.695Z,72.12
2019-04-19T22:04:51.236Z,72.14
2019-04-19T22:07:21.271Z,72.06
2019-04-19T22:09:58.045Z,72.09
2019-04-19T22:12:24.660Z,72.18
2019-04-19T22:15:01.615Z,72.45
2019-04-19T22:17:30.066Z,72.70
2019-04-19T22:20:07.971Z,73.14
2019-04-19T22:22:37.289Z,73.22
2019-04-19T22:25:14.283Z,73.40
2019-04-19T22:27:41.913Z,73.78
2019-04-19T22:30:13.703Z,73.69
2019-04-19T22:32:51.298Z,74.01
2019-04-19T22:35:22.641Z,74.05
2019-04-19T22:37:52.604Z,73.90
2019-04-19T22:40:24.733Z,73.95
2019-04-19T22:43:01.608Z,73.19
2019-04-19T22:45:28.719Z,72.70
2019-04-19T22:48:12.832Z,72.37
2019-04-19T22:50:40.127Z,72.46
2019-04-19T22:53:10.571Z,72.60
2019-04-19T22:55:47.232Z,72.53
2019-04-19T22:58:21.244Z,72.46
2019-04-19T23:00:47.639Z,72.69
2019-04-19T23:03:34.085Z,72.67
2019-04-19T23:06:03.643Z,72.56
2019-04-19T23:08:39.457Z,72.26
2019-04-19T23:11:10.959Z,72.18
2019-04-19T23:13:43.280Z,71.98
2019-04-19T23:16:15.348Z,71.86
2019-04-19T23:18:56.870Z,71.65
2019-04-19T23:21:22.908Z,71.43
2019-04-19T23:23:51.450Z,71.01
2019-04-19T23:26:45.764Z,71.18
2019-04-19T23:28:54.954Z,70.98
2019-04-19T23:31:26.493Z,70.79
2019-04-19T23:34:01.639Z,70.99
2019-04-19T23:36:31.183Z,70.89
2019-04-19T23:39:06.141Z,70.43
2019-04-19T23:41:35.246Z,70.19
2019-04-19T23:44:11.193Z,70.36
2019-04-19T23:46:39.206Z,70.49
2019-04-19T23:49:13.508Z,70.31
2019-04-19T23:51:43.229Z,70.46
2019-04-19T23:54:21.894Z,70.67
2019-04-19T23:56:59.056Z,70.69
2019-04-19T23:59:24.423Z,70.66
